sensor_id;sensor_type;location;lat;lon;timestamp;P1;durP1;ratioP1;P2;durP2;ratioP2
40373;SDS011;26079;45.958;12.492;2023-04-25T00:00:12;5.82;;;4.97;;
40373;SDS011;26079;45.958;12.492;2023-04-25T00:02:38;4.15;;;3.75;;
40373;SDS011;26079;45.958;12.492;2023-04-25T00:05:04;5.03;;;4.28;;
40373;SDS011;26079;45.958;12.492;2023-04-25T00:07:30;3.90;;;3.53;;
40373;SDS011;26079;45.958;12.492;2023-04-25T00:09:57;3.97;;;3.55;;
40373;SDS011;26079;45.958;12.492;2023-04-25T00:12:23;3.25;;;3.03;;
40373;SDS011;26079;45.958;12.492;2023-04-25T00:14:49;3.92;;;3.63;;
40373;SDS011;26079;45.958;12.492;2023-04-25T00:17:15;4.63;;;4.22;;
40373;SDS011;26079;45.958;12.492;2023-04-25T00:19:44;3.78;;;3.47;;
40373;SDS011;26079;45.958;12.492;2023-04-25T00:22:11;16.73;;;15.77;;
40373;SDS011;26079;45.958;12.492;2023-04-25T00:24:38;5.00;;;3.88;;
40373;SDS011;26079;45.958;12.492;2023-04-25T00:27:03;8.75;;;8.25;;
40373;SDS011;26079;45.958;12.492;2023-04-25T00:29:29;4.60;;;4.20;;
40373;SDS011;26079;45.958;12.492;2023-04-25T00:31:55;4.53;;;3.92;;
40373;SDS011;26079;45.958;12.492;2023-04-25T00:34:20;4.45;;;4.05;;
40373;SDS011;26079;45.958;12.492;2023-04-25T00:36:46;4.70;;;4.30;;
40373;SDS011;26079;45.958;12.492;2023-04-25T00:39:12;3.95;;;3.58;;
40373;SDS011;26079;45.958;12.492;2023-04-25T00:41:38;4.65;;;4.30;;
40373;SDS011;26079;45.958;12.492;2023-04-25T00:44:04;3.88;;;3.40;;
40373;SDS011;26079;45.958;12.492;2023-04-25T00:46:32;8.27;;;3.60;;
40373;SDS011;26079;45.958;12.492;2023-04-25T00:48:57;3.45;;;3.15;;
40373;SDS011;26079;45.958;12.492;2023-04-25T00:51:23;3.85;;;3.55;;
40373;SDS011;26079;45.958;12.492;2023-04-25T00:53:51;3.30;;;3.08;;
40373;SDS011;26079;45.958;12.492;2023-04-25T00:56:17;3.33;;;3.00;;
40373;SDS011;26079;45.958;12.492;2023-04-25T00:58:45;3.72;;;3.42;;
40373;SDS011;26079;45.958;12.492;2023-04-25T01:01:11;4.32;;;3.92;;
40373;SDS011;26079;45.958;12.492;2023-04-25T01:03:38;3.42;;;3.13;;
40373;SDS011;26079;45.958;12.492;2023-04-25T01:06:10;8.30;;;3.55;;
40373;SDS011;26079;45.958;12.492;2023-04-25T01:08:37;3.25;;;2.97;;
40373;SDS011;26079;45.958;12.492;2023-04-25T01:11:04;5.90;;;5.18;;
40373;SDS011;26079;45.958;12.492;2023-04-25T01:13:30;4.00;;;3.33;;
40373;SDS011;26079;45.958;12.492;2023-04-25T01:15:57;3.25;;;2.95;;
40373;SDS011;26079;45.958;12.492;2023-04-25T01:18:23;2.95;;;2.75;;
40373;SDS011;26079;45.958;12.492;2023-04-25T01:20:50;2.95;;;2.75;;
40373;SDS011;26079;45.958;12.492;2023-04-25T01:23:17;3.22;;;2.75;;
40373;SDS011;26079;45.958;12.492;2023-04-25T01:25:43;3.15;;;2.63;;
40373;SDS011;26079;45.958;12.492;2023-04-25T01:28:10;3.00;;;2.75;;
40373;SDS011;26079;45.958;12.492;2023-04-25T01:30:36;3.38;;;3.17;;
40373;SDS011;26079;45.958;12.492;2023-04-25T01:33:02;6.40;;;3.45;;
40373;SDS011;26079;45.958;12.492;2023-04-25T01:35:30;4.05;;;3.65;;
40373;SDS011;26079;45.958;12.492;2023-04-25T01:37:56;4.88;;;3.95;;
40373;SDS011;26079;45.958;12.492;2023-04-25T01:40:22;4.05;;;3.70;;
40373;SDS011;26079;45.958;12.492;2023-04-25T01:42:50;2.90;;;2.70;;
40373;SDS011;26079;45.958;12.492;2023-04-25T01:45:16;3.33;;;3.03;;
40373;SDS011;26079;45.958;12.492;2023-04-25T01:47:42;3.72;;;3.42;;
40373;SDS011;26079;45.958;12.492;2023-04-25T01:50:11;4.70;;;3.08;;
40373;SDS011;26079;45.958;12.492;2023-04-25T01:52:37;4.13;;;3.72;;
40373;SDS011;26079;45.958;12.492;2023-04-25T01:55:05;3.72;;;3.35;;
40373;SDS011;26079;45.958;12.492;2023-04-25T01:57:31;4.22;;;3.90;;
40373;SDS011;26079;45.958;12.492;2023-04-25T01:59:58;4.30;;;3.90;;
40373;SDS011;26079;45.958;12.492;2023-04-25T02:02:25;6.07;;;5.47;;
40373;SDS011;26079;45.958;12.492;2023-04-25T02:04:51;4.78;;;4.10;;
40373;SDS011;26079;45.958;12.492;2023-04-25T02:07:17;5.38;;;4.72;;
40373;SDS011;26079;45.958;12.492;2023-04-25T02:09:43;4.35;;;3.95;;
40373;SDS011;26079;45.958;12.492;2023-04-25T02:12:09;3.83;;;3.17;;
40373;SDS011;26079;45.958;12.492;2023-04-25T02:14:35;3.53;;;3.20;;
40373;SDS011;26079;45.958;12.492;2023-04-25T02:17:01;3.45;;;3.15;;
40373;SDS011;26079;45.958;12.492;2023-04-25T02:19:27;3.22;;;2.92;;
40373;SDS011;26079;45.958;12.492;2023-04-25T02:21:52;3.30;;;3.00;;
40373;SDS011;26079;45.958;12.492;2023-04-25T02:24:18;4.65;;;2.55;;
40373;SDS011;26079;45.958;12.492;2023-04-25T02:26:44;3.13;;;2.67;;
40373;SDS011;26079;45.958;12.492;2023-04-25T02:29:11;3.25;;;2.95;;
40373;SDS011;26079;45.958;12.492;2023-04-25T02:31:37;2.92;;;2.42;;
40373;SDS011;26079;45.958;12.492;2023-04-25T02:34:03;3.20;;;2.47;;
40373;SDS011;26079;45.958;12.492;2023-04-25T02:36:29;2.78;;;2.58;;
40373;SDS011;26079;45.958;12.492;2023-04-25T02:38:59;5.13;;;2.70;;
40373;SDS011;26079;45.958;12.492;2023-04-25T02:41:25;2.75;;;2.55;;
40373;SDS011;26079;45.958;12.492;2023-04-25T02:43:51;3.30;;;3.00;;
40373;SDS011;26079;45.958;12.492;2023-04-25T02:46:16;3.05;;;2.80;;
40373;SDS011;26079;45.958;12.492;2023-04-25T02:48:42;3.42;;;2.72;;
40373;SDS011;26079;45.958;12.492;2023-04-25T02:51:08;3.45;;;3.08;;
40373;SDS011;26079;45.958;12.492;2023-04-25T02:53:34;4.35;;;3.95;;
40373;SDS011;26079;45.958;12.492;2023-04-25T02:56:00;5.28;;;3.00;;
40373;SDS011;26079;45.958;12.492;2023-04-25T02:58:26;3.30;;;2.97;;
40373;SDS011;26079;45.958;12.492;2023-04-25T03:00:52;3.25;;;2.95;;
40373;SDS011;26079;45.958;12.492;2023-04-25T03:03:18;3.55;;;3.22;;
40373;SDS011;26079;45.958;12.492;2023-04-25T03:05:46;2.90;;;2.70;;
40373;SDS011;26079;45.958;12.492;2023-04-25T03:08:15;3.95;;;2.65;;
40373;SDS011;26079;45.958;12.492;2023-04-25T03:10:41;2.95;;;2.75;;
40373;SDS011;26079;45.958;12.492;2023-04-25T03:13:07;3.28;;;2.97;;
40373;SDS011;26079;45.958;12.492;2023-04-25T03:15:33;3.13;;;2.83;;
40373;SDS011;26079;45.958;12.492;2023-04-25T03:17:59;4.85;;;2.75;;
40373;SDS011;26079;45.958;12.492;2023-04-25T03:20:25;3.35;;;3.05;;
40373;SDS011;26079;45.958;12.492;2023-04-25T03:22:50;5.47;;;2.78;;
40373;SDS011;26079;45.958;12.492;2023-04-25T03:25:16;3.60;;;3.30;;
40373;SDS011;26079;45.958;12.492;2023-04-25T03:27:42;2.88;;;2.45;;
40373;SDS011;26079;45.958;12.492;2023-04-25T03:30:07;2.85;;;2.38;;
40373;SDS011;26079;45.958;12.492;2023-04-25T03:32:33;2.83;;;2.63;;
40373;SDS011;26079;45.958;12.492;2023-04-25T03:34:59;2.85;;;2.10;;
40373;SDS011;26079;45.958;12.492;2023-04-25T03:37:25;2.22;;;2.03;;
40373;SDS011;26079;45.958;12.492;2023-04-25T03:39:51;3.33;;;2.38;;
40373;SDS011;26079;45.958;12.492;2023-04-25T03:42:16;2.67;;;2.35;;
40373;SDS011;26079;45.958;12.492;2023-04-25T03:44:42;2.95;;;2.75;;
40373;SDS011;26079;45.958;12.492;2023-04-25T03:47:08;5.85;;;2.40;;
40373;SDS011;26079;45.958;12.492;2023-04-25T03:49:34;2.42;;;2.22;;
40373;SDS011;26079;45.958;12.492;2023-04-25T03:52:01;2.92;;;2.63;;
40373;SDS011;26079;45.958;12.492;2023-04-25T03:54:27;2.33;;;2.13;;
40373;SDS011;26079;45.958;12.492;2023-04-25T03:56:52;2.60;;;2.40;;
40373;SDS011;26079;45.958;12.492;2023-04-25T03:59:18;2.55;;;2.20;;
40373;SDS011;26079;45.958;12.492;2023-04-25T04:01:44;2.47;;;2.28;;
40373;SDS011;26079;45.958;12.492;2023-04-25T04:04:09;5.30;;;2.20;;
40373;SDS011;26079;45.958;12.492;2023-04-25T04:06:35;6.18;;;2.10;;
40373;SDS011;26079;45.958;12.492;2023-04-25T04:09:01;3.30;;;2.85;;
40373;SDS011;26079;45.958;12.492;2023-04-25T04:11:27;2.30;;;2.10;;
40373;SDS011;26079;45.958;12.492;2023-04-25T04:13:53;2.30;;;2.10;;
40373;SDS011;26079;45.958;12.492;2023-04-25T04:16:18;3.67;;;3.38;;
40373;SDS011;26079;45.958;12.492;2023-04-25T04:18:45;2.05;;;1.83;;
40373;SDS011;26079;45.958;12.492;2023-04-25T04:21:11;1.92;;;1.83;;
40373;SDS011;26079;45.958;12.492;2023-04-25T04:23:36;1.67;;;1.58;;
40373;SDS011;26079;45.958;12.492;2023-04-25T04:26:02;1.75;;;1.65;;
40373;SDS011;26079;45.958;12.492;2023-04-25T04:28:28;1.88;;;1.77;;
40373;SDS011;26079;45.958;12.492;2023-04-25T04:30:54;4.75;;;2.25;;
40373;SDS011;26079;45.958;12.492;2023-04-25T04:33:20;8.02;;;2.92;;
40373;SDS011;26079;45.958;12.492;2023-04-25T04:35:46;2.53;;;2.08;;
40373;SDS011;26079;45.958;12.492;2023-04-25T04:38:12;2.58;;;2.38;;
40373;SDS011;26079;45.958;12.492;2023-04-25T04:40:40;2.60;;;1.83;;
40373;SDS011;26079;45.958;12.492;2023-04-25T04:43:09;2.08;;;1.88;;
40373;SDS011;26079;45.958;12.492;2023-04-25T04:45:35;4.65;;;1.70;;
40373;SDS011;26079;45.958;12.492;2023-04-25T04:48:01;2.63;;;1.92;;
40373;SDS011;26079;45.958;12.492;2023-04-25T04:50:27;2.70;;;2.10;;
40373;SDS011;26079;45.958;12.492;2023-04-25T04:52:53;2.75;;;2.42;;
40373;SDS011;26079;45.958;12.492;2023-04-25T04:55:20;3.08;;;2.78;;
40373;SDS011;26079;45.958;12.492;2023-04-25T04:57:45;3.00;;;2.80;;
40373;SDS011;26079;45.958;12.492;2023-04-25T05:00:11;4.97;;;4.32;;
40373;SDS011;26079;45.958;12.492;2023-04-25T05:02:38;8.88;;;3.13;;
40373;SDS011;26079;45.958;12.492;2023-04-25T05:05:04;2.15;;;2.00;;
40373;SDS011;26079;45.958;12.492;2023-04-25T05:07:30;2.35;;;2.15;;
40373;SDS011;26079;45.958;12.492;2023-04-25T05:09:56;2.63;;;2.42;;
40373;SDS011;26079;45.958;12.492;2023-04-25T05:12:21;5.93;;;2.85;;
40373;SDS011;26079;45.958;12.492;2023-04-25T05:14:47;3.22;;;2.78;;
40373;SDS011;26079;45.958;12.492;2023-04-25T05:17:13;2.67;;;2.30;;
40373;SDS011;26079;45.958;12.492;2023-04-25T05:19:38;2.60;;;2.40;;
40373;SDS011;26079;45.958;12.492;2023-04-25T05:22:04;3.22;;;2.47;;
40373;SDS011;26079;45.958;12.492;2023-04-25T05:24:30;2.63;;;2.30;;
40373;SDS011;26079;45.958;12.492;2023-04-25T05:26:56;2.72;;;2.03;;
40373;SDS011;26079;45.958;12.492;2023-04-25T05:29:21;2.90;;;2.15;;
40373;SDS011;26079;45.958;12.492;2023-04-25T05:31:47;1.80;;;1.70;;
40373;SDS011;26079;45.958;12.492;2023-04-25T05:34:13;2.67;;;2.13;;
40373;SDS011;26079;45.958;12.492;2023-04-25T05:36:39;3.20;;;2.60;;
40373;SDS011;26079;45.958;12.492;2023-04-25T05:39:04;2.75;;;2.53;;
40373;SDS011;26079;45.958;12.492;2023-04-25T05:41:31;2.50;;;2.30;;
40373;SDS011;26079;45.958;12.492;2023-04-25T05:43:56;2.58;;;2.38;;
40373;SDS011;26079;45.958;12.492;2023-04-25T05:46:22;2.58;;;2.40;;
40373;SDS011;26079;45.958;12.492;2023-04-25T05:48:48;3.22;;;2.70;;
40373;SDS011;26079;45.958;12.492;2023-04-25T05:51:13;6.15;;;2.30;;
40373;SDS011;26079;45.958;12.492;2023-04-25T05:53:39;2.50;;;2.30;;
40373;SDS011;26079;45.958;12.492;2023-04-25T05:56:05;2.47;;;2.28;;
40373;SDS011;26079;45.958;12.492;2023-04-25T05:58:30;3.55;;;2.85;;
40373;SDS011;26079;45.958;12.492;2023-04-25T06:00:56;4.00;;;3.53;;
40373;SDS011;26079;45.958;12.492;2023-04-25T06:03:22;2.60;;;2.28;;
40373;SDS011;26079;45.958;12.492;2023-04-25T06:05:47;2.72;;;2.53;;
40373;SDS011;26079;45.958;12.492;2023-04-25T06:08:13;4.13;;;3.38;;
40373;SDS011;26079;45.958;12.492;2023-04-25T06:10:39;3.03;;;2.75;;
40373;SDS011;26079;45.958;12.492;2023-04-25T06:13:04;3.30;;;3.00;;
40373;SDS011;26079;45.958;12.492;2023-04-25T06:15:30;3.72;;;3.15;;
40373;SDS011;26079;45.958;12.492;2023-04-25T06:17:57;3.83;;;3.33;;
40373;SDS011;26079;45.958;12.492;2023-04-25T06:20:23;7.00;;;5.38;;
40373;SDS011;26079;45.958;12.492;2023-04-25T06:22:49;5.13;;;4.50;;
40373;SDS011;26079;45.958;12.492;2023-04-25T06:25:16;5.30;;;4.10;;
40373;SDS011;26079;45.958;12.492;2023-04-25T06:27:42;9.90;;;5.05;;
40373;SDS011;26079;45.958;12.492;2023-04-25T06:30:08;5.22;;;4.32;;
40373;SDS011;26079;45.958;12.492;2023-04-25T06:32:34;6.20;;;4.65;;
40373;SDS011;26079;45.958;12.492;2023-04-25T06:35:00;4.07;;;3.70;;
40373;SDS011;26079;45.958;12.492;2023-04-25T06:37:26;5.18;;;4.75;;
40373;SDS011;26079;45.958;12.492;2023-04-25T06:39:52;4.50;;;4.10;;
40373;SDS011;26079;45.958;12.492;2023-04-25T06:42:17;5.38;;;4.00;;
40373;SDS011;26079;45.958;12.492;2023-04-25T06:44:43;6.68;;;4.35;;
40373;SDS011;26079;45.958;12.492;2023-04-25T06:47:09;4.90;;;4.38;;
40373;SDS011;26079;45.958;12.492;2023-04-25T06:49:34;5.18;;;4.72;;
40373;SDS011;26079;45.958;12.492;2023-04-25T06:52:00;5.72;;;5.22;;
40373;SDS011;26079;45.958;12.492;2023-04-25T06:54:26;6.07;;;5.47;;
40373;SDS011;26079;45.958;12.492;2023-04-25T06:56:54;6.05;;;5.53;;
40373;SDS011;26079;45.958;12.492;2023-04-25T06:59:20;8.40;;;5.70;;
40373;SDS011;26079;45.958;12.492;2023-04-25T07:01:46;9.90;;;9.00;;
40373;SDS011;26079;45.958;12.492;2023-04-25T07:04:11;7.03;;;6.43;;
40373;SDS011;26079;45.958;12.492;2023-04-25T07:06:37;7.18;;;6.40;;
40373;SDS011;26079;45.958;12.492;2023-04-25T07:09:07;14.05;;;6.05;;
40373;SDS011;26079;45.958;12.492;2023-04-25T07:11:34;6.60;;;5.65;;
40373;SDS011;26079;45.958;12.492;2023-04-25T07:14:00;6.90;;;5.75;;
40373;SDS011;26079;45.958;12.492;2023-04-25T07:16:27;9.98;;;6.00;;
40373;SDS011;26079;45.958;12.492;2023-04-25T07:18:52;7.65;;;5.50;;
40373;SDS011;26079;45.958;12.492;2023-04-25T07:21:18;10.15;;;7.10;;
40373;SDS011;26079;45.958;12.492;2023-04-25T07:23:44;6.90;;;6.25;;
40373;SDS011;26079;45.958;12.492;2023-04-25T07:26:09;6.65;;;6.05;;
40373;SDS011;26079;45.958;12.492;2023-04-25T07:28:35;6.63;;;5.88;;
40373;SDS011;26079;45.958;12.492;2023-04-25T07:31:01;7.63;;;6.82;;
40373;SDS011;26079;45.958;12.492;2023-04-25T07:33:27;7.82;;;6.70;;
40373;SDS011;26079;45.958;12.492;2023-04-25T07:35:53;9.23;;;7.15;;
40373;SDS011;26079;45.958;12.492;2023-04-25T07:38:18;9.93;;;7.50;;
40373;SDS011;26079;45.958;12.492;2023-04-25T07:40:44;7.18;;;6.55;;
40373;SDS011;26079;45.958;12.492;2023-04-25T07:43:10;7.38;;;6.63;;
40373;SDS011;26079;45.958;12.492;2023-04-25T07:45:39;11.25;;;7.53;;
40373;SDS011;26079;45.958;12.492;2023-04-25T07:48:04;8.18;;;7.40;;
40373;SDS011;26079;45.958;12.492;2023-04-25T07:50:30;6.93;;;6.28;;
40373;SDS011;26079;45.958;12.492;2023-04-25T07:52:56;6.90;;;6.20;;
40373;SDS011;26079;45.958;12.492;2023-04-25T07:55:21;7.95;;;5.82;;
40373;SDS011;26079;45.958;12.492;2023-04-25T07:57:47;6.63;;;4.90;;
40373;SDS011;26079;45.958;12.492;2023-04-25T08:00:13;4.05;;;3.75;;
40373;SDS011;26079;45.958;12.492;2023-04-25T08:02:39;6.80;;;5.05;;
40373;SDS011;26079;45.958;12.492;2023-04-25T08:05:05;4.47;;;4.07;;
40373;SDS011;26079;45.958;12.492;2023-04-25T08:07:33;4.15;;;3.70;;
40373;SDS011;26079;45.958;12.492;2023-04-25T08:09:59;4.18;;;3.80;;
40373;SDS011;26079;45.958;12.492;2023-04-25T08:12:25;4.47;;;3.40;;
40373;SDS011;26079;45.958;12.492;2023-04-25T08:14:51;3.42;;;3.10;;
40373;SDS011;26079;45.958;12.492;2023-04-25T08:17:16;4.43;;;3.92;;
40373;SDS011;26079;45.958;12.492;2023-04-25T08:19:42;5.82;;;5.25;;
40373;SDS011;26079;45.958;12.492;2023-04-25T08:22:08;5.53;;;3.40;;
40373;SDS011;26079;45.958;12.492;2023-04-25T08:24:33;3.22;;;2.92;;
40373;SDS011;26079;45.958;12.492;2023-04-25T08:26:59;4.00;;;3.60;;
40373;SDS011;26079;45.958;12.492;2023-04-25T08:29:25;3.75;;;3.35;;
40373;SDS011;26079;45.958;12.492;2023-04-25T08:31:51;5.82;;;3.00;;
40373;SDS011;26079;45.958;12.492;2023-04-25T08:34:18;4.78;;;3.35;;
40373;SDS011;26079;45.958;12.492;2023-04-25T08:36:45;4.07;;;3.28;;
40373;SDS011;26079;45.958;12.492;2023-04-25T08:39:10;3.65;;;3.05;;
40373;SDS011;26079;45.958;12.492;2023-04-25T08:41:36;3.25;;;2.97;;
40373;SDS011;26079;45.958;12.492;2023-04-25T08:44:03;9.15;;;4.20;;
40373;SDS011;26079;45.958;12.492;2023-04-25T08:46:29;4.63;;;4.18;;
40373;SDS011;26079;45.958;12.492;2023-04-25T08:48:57;4.47;;;4.05;;
40373;SDS011;26079;45.958;12.492;2023-04-25T08:51:27;10.05;;;5.57;;
40373;SDS011;26079;45.958;12.492;2023-04-25T08:53:56;8.40;;;4.20;;
40373;SDS011;26079;45.958;12.492;2023-04-25T08:56:37;5.68;;;3.05;;
40373;SDS011;26079;45.958;12.492;2023-04-25T08:59:05;2.78;;;2.50;;
40373;SDS011;26079;45.958;12.492;2023-04-25T09:01:33;2.28;;;2.13;;
40373;SDS011;26079;45.958;12.492;2023-04-25T09:04:00;2.28;;;2.10;;
40373;SDS011;26079;45.958;12.492;2023-04-25T09:06:27;4.95;;;3.15;;
40373;SDS011;26079;45.958;12.492;2023-04-25T09:09:06;5.75;;;3.50;;
40373;SDS011;26079;45.958;12.492;2023-04-25T09:11:33;4.00;;;3.20;;
40373;SDS011;26079;45.958;12.492;2023-04-25T09:19:28;3.00;;;2.42;;
40373;SDS011;26079;45.958;12.492;2023-04-25T09:21:55;2.67;;;2.28;;
40373;SDS011;26079;45.958;12.492;2023-04-25T09:27:09;2.85;;;2.15;;
40373;SDS011;26079;45.958;12.492;2023-04-25T09:29:39;2.75;;;2.50;;
40373;SDS011;26079;45.958;12.492;2023-04-25T09:32:16;5.13;;;2.60;;
40373;SDS011;26079;45.958;12.492;2023-04-25T09:34:50;3.90;;;2.17;;
40373;SDS011;26079;45.958;12.492;2023-04-25T09:37:23;3.03;;;2.78;;
40373;SDS011;26079;45.958;12.492;2023-04-25T09:39:52;3.42;;;2.28;;
40373;SDS011;26079;45.958;12.492;2023-04-25T09:44:53;3.72;;;2.30;;
40373;SDS011;26079;45.958;12.492;2023-04-25T09:47:20;3.08;;;2.67;;
40373;SDS011;26079;45.958;12.492;2023-04-25T09:49:48;4.60;;;2.72;;
40373;SDS011;26079;45.958;12.492;2023-04-25T09:52:19;24.15;;;13.57;;
40373;SDS011;26079;45.958;12.492;2023-04-25T09:54:49;24.20;;;18.42;;
40373;SDS011;26079;45.958;12.492;2023-04-25T09:57:25;5.28;;;3.90;;
40373;SDS011;26079;45.958;12.492;2023-04-25T09:59:54;2.95;;;2.60;;
40373;SDS011;26079;45.958;12.492;2023-04-25T10:02:24;3.83;;;2.28;;
40373;SDS011;26079;45.958;12.492;2023-04-25T10:04:52;3.28;;;2.70;;
40373;SDS011;26079;45.958;12.492;2023-04-25T10:07:23;4.80;;;2.88;;
40373;SDS011;26079;45.958;12.492;2023-04-25T10:10:02;2.78;;;2.15;;
40373;SDS011;26079;45.958;12.492;2023-04-25T10:12:29;2.92;;;2.42;;
40373;SDS011;26079;45.958;12.492;2023-04-25T10:14:56;5.68;;;3.78;;
40373;SDS011;26079;45.958;12.492;2023-04-25T10:17:23;2.78;;;2.10;;
40373;SDS011;26079;45.958;12.492;2023-04-25T10:19:52;2.45;;;1.98;;
40373;SDS011;26079;45.958;12.492;2023-04-25T10:22:37;1.27;;;1.17;;
40373;SDS011;26079;45.958;12.492;2023-04-25T10:25:07;1.50;;;1.05;;
40373;SDS011;26079;45.958;12.492;2023-04-25T10:27:34;1.38;;;1.10;;
40373;SDS011;26079;45.958;12.492;2023-04-25T10:30:01;0.82;;;0.60;;
40373;SDS011;26079;45.958;12.492;2023-04-25T10:32:35;3.53;;;1.05;;
40373;SDS011;26079;45.958;12.492;2023-04-25T10:37:59;0.80;;;0.70;;
40373;SDS011;26079;45.958;12.492;2023-04-25T10:40:30;0.63;;;0.63;;
40373;SDS011;26079;45.958;12.492;2023-04-25T10:45:55;1.30;;;1.20;;
40373;SDS011;26079;45.958;12.492;2023-04-25T10:48:25;13.57;;;9.85;;
40373;SDS011;26079;45.958;12.492;2023-04-25T10:59:05;0.80;;;0.80;;
40373;SDS011;26079;45.958;12.492;2023-04-25T11:01:40;1.73;;;0.90;;
40373;SDS011;26079;45.958;12.492;2023-04-25T11:04:06;0.70;;;0.70;;
40373;SDS011;26079;45.958;12.492;2023-04-25T11:06:46;3.00;;;0.68;;
40373;SDS011;26079;45.958;12.492;2023-04-25T11:09:20;1.00;;;0.73;;
40373;SDS011;26079;45.958;12.492;2023-04-25T11:11:58;3.33;;;1.17;;
40373;SDS011;26079;45.958;12.492;2023-04-25T11:14:25;0.63;;;0.63;;
40373;SDS011;26079;45.958;12.492;2023-04-25T11:16:55;1.05;;;0.77;;
40373;SDS011;26079;45.958;12.492;2023-04-25T11:19:22;0.85;;;0.40;;
40373;SDS011;26079;45.958;12.492;2023-04-25T11:21:48;0.70;;;0.60;;
40373;SDS011;26079;45.958;12.492;2023-04-25T11:24:15;0.55;;;0.35;;
40373;SDS011;26079;45.958;12.492;2023-04-25T11:26:42;0.90;;;0.70;;
40373;SDS011;26079;45.958;12.492;2023-04-25T11:29:08;0.55;;;0.55;;
40373;SDS011;26079;45.958;12.492;2023-04-25T11:31:34;0.52;;;0.52;;
40373;SDS011;26079;45.958;12.492;2023-04-25T11:34:00;0.95;;;0.50;;
40373;SDS011;26079;45.958;12.492;2023-04-25T11:36:26;0.80;;;0.45;;
40373;SDS011;26079;45.958;12.492;2023-04-25T11:38:52;0.52;;;0.50;;
40373;SDS011;26079;45.958;12.492;2023-04-25T11:41:22;0.70;;;0.70;;
40373;SDS011;26079;45.958;12.492;2023-04-25T11:43:47;0.38;;;0.38;;
40373;SDS011;26079;45.958;12.492;2023-04-25T11:46:15;0.90;;;0.70;;
40373;SDS011;26079;45.958;12.492;2023-04-25T11:48:41;0.60;;;0.50;;
40373;SDS011;26079;45.958;12.492;2023-04-25T11:51:08;0.20;;;0.20;;
40373;SDS011;26079;45.958;12.492;2023-04-25T11:53:34;0.55;;;0.40;;
40373;SDS011;26079;45.958;12.492;2023-04-25T11:56:00;1.00;;;0.77;;
40373;SDS011;26079;45.958;12.492;2023-04-25T11:58:26;1.20;;;0.82;;
40373;SDS011;26079;45.958;12.492;2023-04-25T12:00:52;0.60;;;0.45;;
40373;SDS011;26079;45.958;12.492;2023-04-25T12:03:18;0.93;;;0.40;;
40373;SDS011;26079;45.958;12.492;2023-04-25T12:05:44;0.52;;;0.43;;
40373;SDS011;26079;45.958;12.492;2023-04-25T12:08:14;0.20;;;0.20;;
40373;SDS011;26079;45.958;12.492;2023-04-25T12:10:42;0.40;;;0.40;;
40373;SDS011;26079;45.958;12.492;2023-04-25T12:13:22;0.10;;;0.10;;
40373;SDS011;26079;45.958;12.492;2023-04-25T12:15:50;1.55;;;0.20;;
40373;SDS011;26079;45.958;12.492;2023-04-25T12:18:20;0.22;;;0.20;;
40373;SDS011;26079;45.958;12.492;2023-04-25T12:20:48;13.27;;;1.95;;
40373;SDS011;26079;45.958;12.492;2023-04-25T12:23:13;1.17;;;0.30;;
40373;SDS011;26079;45.958;12.492;2023-04-25T12:25:40;0.32;;;0.20;;
40373;SDS011;26079;45.958;12.492;2023-04-25T12:31:00;1.02;;;0.50;;
40373;SDS011;26079;45.958;12.492;2023-04-25T12:33:34;0.30;;;0.20;;
40373;SDS011;26079;45.958;12.492;2023-04-25T12:36:01;0.22;;;0.10;;
40373;SDS011;26079;45.958;12.492;2023-04-25T12:38:36;0.70;;;0.30;;
40373;SDS011;26079;45.958;12.492;2023-04-25T12:41:03;1.27;;;0.50;;
40373;SDS011;26079;45.958;12.492;2023-04-25T12:43:29;0.40;;;0.40;;
40373;SDS011;26079;45.958;12.492;2023-04-25T12:45:55;0.57;;;0.28;;
40373;SDS011;26079;45.958;12.492;2023-04-25T12:48:21;0.93;;;0.60;;
40373;SDS011;26079;45.958;12.492;2023-04-25T12:50:47;2.03;;;0.90;;
40373;SDS011;26079;45.958;12.492;2023-04-25T12:53:17;0.80;;;0.35;;
40373;SDS011;26079;45.958;12.492;2023-04-25T12:55:44;0.50;;;0.30;;
40373;SDS011;26079;45.958;12.492;2023-04-25T12:58:14;0.50;;;0.50;;
40373;SDS011;26079;45.958;12.492;2023-04-25T13:00:40;0.40;;;0.32;;
40373;SDS011;26079;45.958;12.492;2023-04-25T13:03:07;0.55;;;0.40;;
40373;SDS011;26079;45.958;12.492;2023-04-25T13:05:33;1.50;;;0.82;;
40373;SDS011;26079;45.958;12.492;2023-04-25T13:07:59;2.25;;;1.25;;
40373;SDS011;26079;45.958;12.492;2023-04-25T13:10:25;0.73;;;0.60;;
40373;SDS011;26079;45.958;12.492;2023-04-25T13:12:50;0.40;;;0.40;;
40373;SDS011;26079;45.958;12.492;2023-04-25T13:15:16;0.28;;;0.20;;
40373;SDS011;26079;45.958;12.492;2023-04-25T13:17:42;1.85;;;0.47;;
40373;SDS011;26079;45.958;12.492;2023-04-25T13:20:08;0.40;;;0.40;;
40373;SDS011;26079;45.958;12.492;2023-04-25T13:22:35;0.32;;;0.17;;
40373;SDS011;26079;45.958;12.492;2023-04-25T13:25:02;9.50;;;2.20;;
40373;SDS011;26079;45.958;12.492;2023-04-25T13:27:29;2.28;;;1.60;;
40373;SDS011;26079;45.958;12.492;2023-04-25T13:29:57;3.33;;;0.60;;
40373;SDS011;26079;45.958;12.492;2023-04-25T13:32:23;0.30;;;0.25;;
40373;SDS011;26079;45.958;12.492;2023-04-25T13:34:49;0.50;;;0.47;;
40373;SDS011;26079;45.958;12.492;2023-04-25T13:37:16;0.98;;;0.30;;
40373;SDS011;26079;45.958;12.492;2023-04-25T13:39:41;0.98;;;0.50;;
40373;SDS011;26079;45.958;12.492;2023-04-25T13:42:07;0.10;;;0.10;;
40373;SDS011;26079;45.958;12.492;2023-04-25T13:44:32;1.88;;;0.25;;
40373;SDS011;26079;45.958;12.492;2023-04-25T13:46:58;0.20;;;0.10;;
40373;SDS011;26079;45.958;12.492;2023-04-25T13:49:25;1.30;;;0.40;;
40373;SDS011;26079;45.958;12.492;2023-04-25T13:51:51;0.52;;;0.25;;
40373;SDS011;26079;45.958;12.492;2023-04-25T13:57:01;0.68;;;0.35;;
40373;SDS011;26079;45.958;12.492;2023-04-25T13:59:27;0.57;;;0.30;;
40373;SDS011;26079;45.958;12.492;2023-04-25T14:01:52;0.52;;;0.38;;
40373;SDS011;26079;45.958;12.492;2023-04-25T14:04:18;0.30;;;0.20;;
40373;SDS011;26079;45.958;12.492;2023-04-25T14:06:44;0.50;;;0.40;;
40373;SDS011;26079;45.958;12.492;2023-04-25T14:09:10;0.30;;;0.30;;
40373;SDS011;26079;45.958;12.492;2023-04-25T14:11:38;4.28;;;0.50;;
40373;SDS011;26079;45.958;12.492;2023-04-25T14:14:04;0.50;;;0.50;;
40373;SDS011;26079;45.958;12.492;2023-04-25T14:16:30;0.20;;;0.20;;
40373;SDS011;26079;45.958;12.492;2023-04-25T14:18:57;0.20;;;0.20;;
40373;SDS011;26079;45.958;12.492;2023-04-25T14:21:23;0.40;;;0.30;;
40373;SDS011;26079;45.958;12.492;2023-04-25T14:23:50;1.65;;;0.40;;
40373;SDS011;26079;45.958;12.492;2023-04-25T14:26:15;0.40;;;0.30;;
40373;SDS011;26079;45.958;12.492;2023-04-25T14:28:41;0.80;;;0.50;;
40373;SDS011;26079;45.958;12.492;2023-04-25T14:31:07;0.70;;;0.50;;
40373;SDS011;26079;45.958;12.492;2023-04-25T14:33:32;3.03;;;2.67;;
40373;SDS011;26079;45.958;12.492;2023-04-25T14:35:59;2.95;;;1.83;;
40373;SDS011;26079;45.958;12.492;2023-04-25T14:38:24;1.10;;;1.00;;
40373;SDS011;26079;45.958;12.492;2023-04-25T14:40:51;1.42;;;0.90;;
40373;SDS011;26079;45.958;12.492;2023-04-25T14:43:16;1.17;;;0.88;;
40373;SDS011;26079;45.958;12.492;2023-04-25T14:45:42;0.90;;;0.82;;
40373;SDS011;26079;45.958;12.492;2023-04-25T14:48:08;1.23;;;0.85;;
40373;SDS011;26079;45.958;12.492;2023-04-25T14:50:33;0.40;;;0.38;;
40373;SDS011;26079;45.958;12.492;2023-04-25T14:52:59;0.40;;;0.40;;
40373;SDS011;26079;45.958;12.492;2023-04-25T14:55:28;0.35;;;0.22;;
40373;SDS011;26079;45.958;12.492;2023-04-25T14:57:54;0.63;;;0.57;;
40373;SDS011;26079;45.958;12.492;2023-04-25T15:00:20;1.20;;;0.65;;